sensor_id;sensor_type;location;lat;lon;timestamp;pressure;altitude;pressure_sealevel;temperature;humidity
59240;BME280;45010;53.640;10.578;2023-04-22T00:02:54;100782.00;;;25.92;29.94
59240;BME280;45010;53.640;10.578;2023-04-22T00:05:55;100777.69;;;25.91;30.09
59240;BME280;45010;53.640;10.578;2023-04-22T00:08:55;100760.53;;;25.87;29.93
59240;BME280;45010;53.640;10.578;2023-04-22T00:11:56;100759.72;;;25.87;29.94
59240;BME280;45010;53.640;10.578;2023-04-22T00:14:56;100750.88;;;25.86;30.05
59240;BME280;45010;53.640;10.578;2023-04-22T00:17:57;100742.19;;;25.79;29.89
59240;BME280;45010;53.640;10.578;2023-04-22T00:20:58;100752.44;;;25.82;30.16
59240;BME280;45010;53.640;10.578;2023-04-22T00:23:58;100718.94;;;25.62;30.30
59240;BME280;45010;53.640;10.578;2023-04-22T00:26:58;100739.53;;;25.79;30.20
59240;BME280;45010;53.640;10.578;2023-04-22T00:30:00;100716.13;;;25.69;29.96
59240;BME280;45010;53.640;10.578;2023-04-22T00:33:00;100734.91;;;25.74;29.97
59240;BME280;45010;53.640;10.578;2023-04-22T00:36:00;100733.53;;;25.72;30.20
59240;BME280;45010;53.640;10.578;2023-04-22T00:39:01;100727.63;;;25.70;30.21
59240;BME280;45010;53.640;10.578;2023-04-22T00:42:01;100733.44;;;25.67;30.22
59240;BME280;45010;53.640;10.578;2023-04-22T00:45:02;100717.41;;;25.67;30.05
59240;BME280;45010;53.640;10.578;2023-04-22T00:48:03;100714.16;;;25.64;30.05
59240;BME280;45010;53.640;10.578;2023-04-22T00:51:04;100693.53;;;25.48;30.06
59240;BME280;45010;53.640;10.578;2023-04-22T00:54:04;100712.22;;;25.60;30.27
59240;BME280;45010;53.640;10.578;2023-04-22T00:57:05;100705.22;;;25.59;30.09
59240;BME280;45010;53.640;10.578;2023-04-22T01:00:06;100711.84;;;25.56;29.93
59240;BME280;45010;53.640;10.578;2023-04-22T01:03:08;100703.28;;;25.54;30.18
59240;BME280;45010;53.640;10.578;2023-04-22T01:06:09;100696.75;;;25.50;30.42
59240;BME280;45010;53.640;10.578;2023-04-22T01:09:09;100693.06;;;25.51;30.18
59240;BME280;45010;53.640;10.578;2023-04-22T01:12:10;100684.63;;;25.42;30.36
59240;BME280;45010;53.640;10.578;2023-04-22T01:15:10;100684.28;;;25.38;30.44
59240;BME280;45010;53.640;10.578;2023-04-22T01:18:11;100682.28;;;25.46;30.25
59240;BME280;45010;53.640;10.578;2023-04-22T01:21:11;100687.03;;;25.44;30.44
59240;BME280;45010;53.640;10.578;2023-04-22T01:24:12;100680.06;;;25.43;30.37
59240;BME280;45010;53.640;10.578;2023-04-22T01:27:12;100687.53;;;25.41;30.44
59240;BME280;45010;53.640;10.578;2023-04-22T01:30:13;100677.91;;;25.39;30.24
59240;BME280;45010;53.640;10.578;2023-04-22T01:33:14;100667.56;;;25.31;30.35
59240;BME280;45010;53.640;10.578;2023-04-22T01:36:15;100671.16;;;25.37;30.37
59240;BME280;45010;53.640;10.578;2023-04-22T01:39:16;100674.06;;;25.35;30.46
59240;BME280;45010;53.640;10.578;2023-04-22T01:42:17;100676.19;;;25.33;30.47
59240;BME280;45010;53.640;10.578;2023-04-22T01:45:17;100674.56;;;25.32;30.39
59240;BME280;45010;53.640;10.578;2023-04-22T01:48:17;100671.31;;;25.30;30.38
59240;BME280;45010;53.640;10.578;2023-04-22T01:51:18;100673.41;;;25.28;30.55
59240;BME280;45010;53.640;10.578;2023-04-22T01:54:22;100670.97;;;25.27;30.34
59240;BME280;45010;53.640;10.578;2023-04-22T01:57:23;100663.19;;;25.25;30.56
59240;BME280;45010;53.640;10.578;2023-04-22T02:00:23;100666.91;;;25.24;30.65
59240;BME280;45010;53.640;10.578;2023-04-22T02:03:23;100658.34;;;25.22;30.53
59240;BME280;45010;53.640;10.578;2023-04-22T02:06:24;100656.72;;;25.21;30.53
59240;BME280;45010;53.640;10.578;2023-04-22T02:09:24;100653.47;;;25.19;30.55
59240;BME280;45010;53.640;10.578;2023-04-22T02:12:24;100651.84;;;25.18;30.51
59240;BME280;45010;53.640;10.578;2023-04-22T02:15:25;100650.22;;;25.17;30.61
59240;BME280;45010;53.640;10.578;2023-04-22T02:18:25;100623.34;;;25.06;30.68
59240;BME280;45010;53.640;10.578;2023-04-22T02:21:28;100636.31;;;25.15;30.58
59240;BME280;45010;53.640;10.578;2023-04-22T02:24:29;100640.00;;;25.14;30.62
59240;BME280;45010;53.640;10.578;2023-04-22T02:27:29;100642.94;;;25.12;30.60
59240;BME280;45010;53.640;10.578;2023-04-22T02:30:29;100640.50;;;25.10;30.67
59240;BME280;45010;53.640;10.578;2023-04-22T02:33:30;100634.34;;;25.10;30.65
59240;BME280;45010;53.640;10.578;2023-04-22T02:36:30;100637.28;;;25.08;30.57
59240;BME280;45010;53.640;10.578;2023-04-22T02:39:31;100635.63;;;25.07;30.51
59240;BME280;45010;53.640;10.578;2023-04-22T02:42:32;100625.91;;;25.01;30.51
59240;BME280;45010;53.640;10.578;2023-04-22T02:45:32;100628.66;;;25.06;30.58
59240;BME280;45010;53.640;10.578;2023-04-22T02:48:32;100620.09;;;25.04;30.76
59240;BME280;45010;53.640;10.578;2023-04-22T02:51:32;100623.81;;;25.03;30.44
59240;BME280;45010;53.640;10.578;2023-04-22T02:54:33;100615.22;;;25.01;30.68
59240;BME280;45010;53.640;10.578;2023-04-22T02:57:33;100618.94;;;25.00;30.89
59240;BME280;45010;53.640;10.578;2023-04-22T03:00:34;100609.56;;;24.97;30.68
59240;BME280;45010;53.640;10.578;2023-04-22T03:03:34;100607.72;;;24.98;30.93
59240;BME280;45010;53.640;10.578;2023-04-22T03:06:35;100598.09;;;24.97;30.77
59240;BME280;45010;53.640;10.578;2023-04-22T03:09:35;100576.19;;;24.83;30.73
59240;BME280;45010;53.640;10.578;2023-04-22T03:12:36;100586.72;;;24.90;31.00
59240;BME280;45010;53.640;10.578;2023-04-22T03:15:36;100585.22;;;24.94;30.91
59240;BME280;45010;53.640;10.578;2023-04-22T03:18:36;100584.41;;;24.93;30.96
59240;BME280;45010;53.640;10.578;2023-04-22T03:21:36;100578.47;;;24.91;30.65
59240;BME280;45010;53.640;10.578;2023-04-22T03:24:37;100568.63;;;24.92;30.85
59240;BME280;45010;53.640;10.578;2023-04-22T03:27:37;100586.72;;;24.90;30.62
59240;BME280;45010;53.640;10.578;2023-04-22T03:30:38;100568.31;;;24.88;30.80
59240;BME280;45010;53.640;10.578;2023-04-22T03:33:38;100567.47;;;24.88;30.86
59240;BME280;45010;53.640;10.578;2023-04-22T03:36:38;100572.03;;;24.87;30.96
59240;BME280;45010;53.640;10.578;2023-04-22T03:39:38;100566.91;;;24.85;30.80
59240;BME280;45010;53.640;10.578;2023-04-22T03:42:39;100559.16;;;24.84;30.91
59240;BME280;45010;53.640;10.578;2023-04-22T03:45:40;100555.66;;;24.83;30.92
59240;BME280;45010;53.640;10.578;2023-04-22T03:48:40;100553.00;;;24.83;30.88
59240;BME280;45010;53.640;10.578;2023-04-22T03:51:40;100554.03;;;24.82;30.69
59240;BME280;45010;53.640;10.578;2023-04-22T03:54:41;100547.91;;;24.82;30.83
59240;BME280;45010;53.640;10.578;2023-04-22T03:57:41;100541.75;;;24.81;30.76
59240;BME280;45010;53.640;10.578;2023-04-22T04:00:41;100538.50;;;24.79;30.87
59240;BME280;45010;53.640;10.578;2023-04-22T04:03:42;100536.88;;;24.78;30.98
59240;BME280;45010;53.640;10.578;2023-04-22T04:06:42;100535.00;;;24.79;30.77
59240;BME280;45010;53.640;10.578;2023-04-22T04:09:42;100531.56;;;24.78;31.01
59240;BME280;45010;53.640;10.578;2023-04-22T04:12:43;100535.25;;;24.77;30.84
59240;BME280;45010;53.640;10.578;2023-04-22T04:15:43;100537.34;;;24.75;30.96
59240;BME280;45010;53.640;10.578;2023-04-22T04:18:43;100540.00;;;24.75;30.91
59240;BME280;45010;53.640;10.578;2023-04-22T04:21:44;100541.06;;;24.74;31.16
59240;BME280;45010;53.640;10.578;2023-04-22T04:24:44;100539.44;;;24.73;30.90
59240;BME280;45010;53.640;10.578;2023-04-22T04:27:46;100544.78;;;24.73;30.92
59240;BME280;45010;53.640;10.578;2023-04-22T04:30:46;100535.72;;;24.74;31.03
59240;BME280;45010;53.640;10.578;2023-04-22T04:33:47;100539.44;;;24.73;30.88
59240;BME280;45010;53.640;10.578;2023-04-22T04:36:47;100537.84;;;24.72;30.89
59240;BME280;45010;53.640;10.578;2023-04-22T04:39:47;100537.84;;;24.72;30.95
59240;BME280;45010;53.640;10.578;2023-04-22T04:42:48;100536.19;;;24.71;31.23
59240;BME280;45010;53.640;10.578;2023-04-22T04:45:48;100528.56;;;24.63;31.13
59240;BME280;45010;53.640;10.578;2023-04-22T04:48:48;100534.56;;;24.70;30.97
59240;BME280;45010;53.640;10.578;2023-04-22T04:51:49;100527.63;;;24.69;31.24
59240;BME280;45010;53.640;10.578;2023-04-22T04:54:50;100529.25;;;24.70;31.05
59240;BME280;45010;53.640;10.578;2023-04-22T04:57:50;100526.00;;;24.68;31.11
59240;BME280;45010;53.640;10.578;2023-04-22T05:00:50;100524.38;;;24.67;31.11
59240;BME280;45010;53.640;10.578;2023-04-22T05:03:51;100535.06;;;24.67;31.21
59240;BME280;45010;53.640;10.578;2023-04-22T05:06:51;100520.47;;;24.57;30.98
59240;BME280;45010;53.640;10.578;2023-04-22T05:09:52;100531.34;;;24.68;31.07
59240;BME280;45010;53.640;10.578;2023-04-22T05:12:52;100534.00;;;24.68;31.09
59240;BME280;45010;53.640;10.578;2023-04-22T05:15:53;100529.72;;;24.67;31.09
59240;BME280;45010;53.640;10.578;2023-04-22T05:18:53;100528.13;;;24.66;31.16
59240;BME280;45010;53.640;10.578;2023-04-22T05:21:54;100530.78;;;24.66;30.95
59240;BME280;45010;53.640;10.578;2023-04-22T05:24:54;100528.13;;;24.66;31.01
59240;BME280;45010;53.640;10.578;2023-04-22T05:27:55;100515.81;;;24.65;30.95
59240;BME280;45010;53.640;10.578;2023-04-22T05:30:55;100519.06;;;24.67;31.12
59240;BME280;45010;53.640;10.578;2023-04-22T05:33:56;100525.44;;;24.66;30.98
59240;BME280;45010;53.640;10.578;2023-04-22T05:36:56;100521.13;;;24.65;31.09
59240;BME280;45010;53.640;10.578;2023-04-22T05:39:57;100521.13;;;24.65;31.17
59240;BME280;45010;53.640;10.578;2023-04-22T05:42:57;100495.22;;;24.48;31.15
59240;BME280;45010;53.640;10.578;2023-04-22T05:45:57;100521.13;;;24.65;31.14
59240;BME280;45010;53.640;10.578;2023-04-22T05:48:58;100521.97;;;24.65;31.34
59240;BME280;45010;53.640;10.578;2023-04-22T05:51:58;100526.47;;;24.65;31.27
59240;BME280;45010;53.640;10.578;2023-04-22T05:54:58;100521.13;;;24.65;31.41
59240;BME280;45010;53.640;10.578;2023-04-22T05:57:59;100519.50;;;24.64;31.19
59240;BME280;45010;53.640;10.578;2023-04-22T06:00:59;100532.84;;;24.64;31.30
59240;BME280;45010;53.640;10.578;2023-04-22T06:03:59;100538.19;;;24.64;31.53
59240;BME280;45010;53.640;10.578;2023-04-22T06:07:00;100537.13;;;24.65;31.28
59240;BME280;45010;53.640;10.578;2023-04-22T06:10:00;100519.50;;;24.64;31.27
59240;BME280;45010;53.640;10.578;2023-04-22T06:13:00;100513.13;;;24.65;31.32
59240;BME280;45010;53.640;10.578;2023-04-22T06:16:01;100499.81;;;24.65;31.28
59240;BME280;45010;53.640;10.578;2023-04-22T06:19:01;100485.69;;;24.52;31.40
59240;BME280;45010;53.640;10.578;2023-04-22T06:22:01;100486.72;;;24.63;31.43
59240;BME280;45010;53.640;10.578;2023-04-22T06:25:02;100480.56;;;24.63;31.51
59240;BME280;45010;53.640;10.578;2023-04-22T06:28:02;100492.06;;;24.63;31.63
59240;BME280;45010;53.640;10.578;2023-04-22T06:31:03;100475.00;;;24.64;31.42
59240;BME280;45010;53.640;10.578;2023-04-22T06:34:03;100489.13;;;24.65;31.49
59240;BME280;45010;53.640;10.578;2023-04-22T06:37:05;100481.13;;;24.65;31.68
59240;BME280;45010;53.640;10.578;2023-04-22T06:40:07;100470.72;;;24.63;31.68
59240;BME280;45010;53.640;10.578;2023-04-22T06:43:07;100477.91;;;24.63;31.55
59240;BME280;45010;53.640;10.578;2023-04-22T06:46:08;100473.63;;;24.62;31.73
59240;BME280;45010;53.640;10.578;2023-04-22T06:49:08;100470.13;;;24.61;31.77
59240;BME280;45010;53.640;10.578;2023-04-22T06:52:08;100473.63;;;24.62;31.64
59240;BME280;45010;53.640;10.578;2023-04-22T06:55:09;100464.69;;;24.56;31.47
59240;BME280;45010;53.640;10.578;2023-04-22T06:58:09;100469.91;;;24.63;31.72
59240;BME280;45010;53.640;10.578;2023-04-22T07:01:10;100462.75;;;24.51;31.70
59240;BME280;45010;53.640;10.578;2023-04-22T07:04:10;100475.25;;;24.63;31.76
59240;BME280;45010;53.640;10.578;2023-04-22T07:07:12;100478.97;;;24.62;31.62
59240;BME280;45010;53.640;10.578;2023-04-22T07:10:12;100474.41;;;24.62;31.69
59240;BME280;45010;53.640;10.578;2023-04-22T07:13:15;100475.72;;;24.60;31.29
59240;BME280;45010;53.640;10.578;2023-04-22T07:16:15;100473.84;;;24.60;31.65
59240;BME280;45010;53.640;10.578;2023-04-22T07:19:16;100478.41;;;24.60;31.90
59240;BME280;45010;53.640;10.578;2023-04-22T07:22:16;100475.72;;;24.60;31.65
59240;BME280;45010;53.640;10.578;2023-04-22T07:25:17;100468.66;;;24.53;31.78
59240;BME280;45010;53.640;10.578;2023-04-22T07:28:17;100478.63;;;24.58;31.75
59240;BME280;45010;53.640;10.578;2023-04-22T07:31:17;100481.06;;;24.60;31.72
59240;BME280;45010;53.640;10.578;2023-04-22T07:34:18;100478.41;;;24.60;31.71
59240;BME280;45010;53.640;10.578;2023-04-22T07:37:18;100475.72;;;24.60;31.73
59240;BME280;45010;53.640;10.578;2023-04-22T07:40:18;100477.34;;;24.61;31.92
59240;BME280;45010;53.640;10.578;2023-04-22T07:43:19;100457.75;;;24.55;31.69
59240;BME280;45010;53.640;10.578;2023-04-22T07:46:19;100462.13;;;24.61;31.95
59240;BME280;45010;53.640;10.578;2023-04-22T07:49:20;100467.47;;;24.61;31.97
59240;BME280;45010;53.640;10.578;2023-04-22T07:52:20;100470.97;;;24.62;31.97
59240;BME280;45010;53.640;10.578;2023-04-22T07:55:20;100465.41;;;24.63;31.77
59240;BME280;45010;53.640;10.578;2023-04-22T07:58:21;100446.31;;;24.54;31.95
59240;BME280;45010;53.640;10.578;2023-04-22T08:01:21;100457.13;;;24.65;31.82
59240;BME280;45010;53.640;10.578;2023-04-22T08:04:21;100453.69;;;24.64;31.79
59240;BME280;45010;53.640;10.578;2023-04-22T08:07:22;100447.28;;;24.65;31.57
59240;BME280;45010;53.640;10.578;2023-04-22T08:10:22;100449.13;;;24.65;31.69
59240;BME280;45010;53.640;10.578;2023-04-22T08:13:23;100448.34;;;24.64;31.62
59240;BME280;45010;53.640;10.578;2023-04-22T08:16:23;100435.81;;;24.65;31.35
59240;BME280;45010;53.640;10.578;2023-04-22T08:19:23;100432.59;;;24.63;31.20
59240;BME280;45010;53.640;10.578;2023-04-22T08:22:24;100440.56;;;24.63;31.79
59240;BME280;45010;53.640;10.578;2023-04-22T08:25:25;100429.81;;;24.57;31.64
59240;BME280;45010;53.640;10.578;2023-04-22T08:28:25;100430.47;;;24.65;31.76
59240;BME280;45010;53.640;10.578;2023-04-22T08:31:26;100429.44;;;24.66;31.71
59240;BME280;45010;53.640;10.578;2023-04-22T08:34:26;100431.63;;;24.69;31.55
59240;BME280;45010;53.640;10.578;2023-04-22T08:37:28;100416.13;;;24.66;31.55
59240;BME280;45010;53.640;10.578;2023-04-22T08:40:28;100419.44;;;24.73;31.74
59240;BME280;45010;53.640;10.578;2023-04-22T08:43:29;100412.00;;;24.75;31.88
59240;BME280;45010;53.640;10.578;2023-04-22T08:46:30;100414.66;;;24.75;31.98
59240;BME280;45010;53.640;10.578;2023-04-22T08:49:30;100401.88;;;24.77;32.13
59240;BME280;45010;53.640;10.578;2023-04-22T08:52:31;100406.09;;;24.73;32.18
59240;BME280;45010;53.640;10.578;2023-04-22T08:55:33;100390.56;;;24.70;32.40
59240;BME280;45010;53.640;10.578;2023-04-22T08:58:35;100410.47;;;24.79;32.27
59240;BME280;45010;53.640;10.578;2023-04-22T09:01:37;100393.66;;;24.79;32.19
59240;BME280;45010;53.640;10.578;2023-04-22T09:04:39;100402.72;;;24.78;32.04
59240;BME280;45010;53.640;10.578;2023-04-22T09:07:40;100388.50;;;24.72;32.01
59240;BME280;45010;53.640;10.578;2023-04-22T09:10:40;100393.00;;;24.71;31.99
59240;BME280;45010;53.640;10.578;2023-04-22T09:13:41;100387.66;;;24.71;32.06
59240;BME280;45010;53.640;10.578;2023-04-22T09:16:46;100399.22;;;24.77;31.71
59240;BME280;45010;53.640;10.578;2023-04-22T09:19:57;100384.19;;;24.71;31.82
59240;BME280;45010;53.640;10.578;2023-04-22T09:23:02;100389.59;;;24.76;31.78
59240;BME280;45010;53.640;10.578;2023-04-22T09:26:04;100389.59;;;24.76;31.79
59240;BME280;45010;53.640;10.578;2023-04-22T09:29:04;100379.75;;;24.77;31.65
59240;BME280;45010;53.640;10.578;2023-04-22T09:32:09;100368.59;;;24.63;31.61
59240;BME280;45010;53.640;10.578;2023-04-22T09:35:10;100398.19;;;24.78;31.76
59240;BME280;45010;53.640;10.578;2023-04-22T09:38:11;100396.56;;;24.77;31.66
59240;BME280;45010;53.640;10.578;2023-04-22T09:41:12;100396.56;;;24.77;31.62
59240;BME280;45010;53.640;10.578;2023-04-22T09:44:16;100385.56;;;24.74;31.58
59240;BME280;45010;53.640;10.578;2023-04-22T09:47:18;100389.38;;;24.78;31.45
59240;BME280;45010;53.640;10.578;2023-04-22T09:50:20;100384.78;;;24.73;31.46
59240;BME280;45010;53.640;10.578;2023-04-22T09:53:21;100377.81;;;24.72;31.38
59240;BME280;45010;53.640;10.578;2023-04-22T09:56:21;100392.88;;;24.78;31.54
59240;BME280;45010;53.640;10.578;2023-04-22T09:59:28;100378.47;;;24.79;31.58
59240;BME280;45010;53.640;10.578;2023-04-22T10:02:28;100380.56;;;24.77;32.10
59240;BME280;45010;53.640;10.578;2023-04-22T10:05:29;100373.16;;;24.79;32.29
59240;BME280;45010;53.640;10.578;2023-04-22T10:08:31;100368.28;;;24.76;32.39
59240;BME280;45010;53.640;10.578;2023-04-22T10:11:33;100368.41;;;24.81;32.50
59240;BME280;45010;53.640;10.578;2023-04-22T10:14:33;100360.94;;;24.83;32.39
59240;BME280;45010;53.640;10.578;2023-04-22T10:17:37;100368.47;;;24.87;32.54
59240;BME280;45010;53.640;10.578;2023-04-22T10:20:39;100350.28;;;24.83;32.75
59240;BME280;45010;53.640;10.578;2023-04-22T10:23:45;100328.78;;;24.73;32.62
59240;BME280;45010;53.640;10.578;2023-04-22T10:26:55;100332.75;;;24.88;32.50
59240;BME280;45010;53.640;10.578;2023-04-22T10:30:00;100338.72;;;24.95;32.72
59240;BME280;45010;53.640;10.578;2023-04-22T10:36:26;100335.66;;;25.03;32.69
59240;BME280;45010;53.640;10.578;2023-04-22T10:39:28;100327.97;;;25.07;32.77
59240;BME280;45010;53.640;10.578;2023-04-22T10:42:28;100329.34;;;25.09;33.04
59240;BME280;45010;53.640;10.578;2023-04-22T10:45:31;100314.06;;;25.05;32.59
59240;BME280;45010;53.640;10.578;2023-04-22T10:48:50;100323.03;;;25.16;32.53
59240;BME280;45010;53.640;10.578;2023-04-22T10:57:53;100307.66;;;25.23;32.34
59240;BME280;45010;53.640;10.578;2023-04-22T11:00:54;100295.84;;;25.19;32.20
59240;BME280;45010;53.640;10.578;2023-04-22T11:04:21;100286.31;;;25.23;32.02
59240;BME280;45010;53.640;10.578;2023-04-22T11:10:43;100289.53;;;25.25;32.06
59240;BME280;45010;53.640;10.578;2023-04-22T11:13:43;100280.50;;;25.26;32.07
59240;BME280;45010;53.640;10.578;2023-04-22T11:16:50;100280.50;;;25.26;32.01
59240;BME280;45010;53.640;10.578;2023-04-22T11:19:50;100280.50;;;25.26;31.76
59240;BME280;45010;53.640;10.578;2023-04-22T11:22:56;100280.50;;;25.26;31.96
59240;BME280;45010;53.640;10.578;2023-04-22T11:25:59;100282.09;;;25.27;31.91
59240;BME280;45010;53.640;10.578;2023-04-22T11:28:59;100282.66;;;25.29;31.81
59240;BME280;45010;53.640;10.578;2023-04-22T11:32:02;100264.97;;;25.23;31.66
59240;BME280;45010;53.640;10.578;2023-04-22T11:35:04;100266.56;;;25.24;31.92
59240;BME280;45010;53.640;10.578;2023-04-22T11:38:05;100264.97;;;25.23;31.87
59240;BME280;45010;53.640;10.578;2023-04-22T11:41:07;100274.66;;;25.29;31.84
59240;BME280;45010;53.640;10.578;2023-04-22T11:44:08;100240.25;;;25.10;31.71
59240;BME280;45010;53.640;10.578;2023-04-22T11:47:08;100259.94;;;25.27;31.86
59240;BME280;45010;53.640;10.578;2023-04-22T11:50:09;100249.44;;;25.20;31.69
59240;BME280;45010;53.640;10.578;2023-04-22T11:53:18;100254.03;;;25.24;31.84
59240;BME280;45010;53.640;10.578;2023-04-22T11:56:20;100244.16;;;25.25;31.79
59240;BME280;45010;53.640;10.578;2023-04-22T11:59:23;100231.50;;;25.15;32.31
59240;BME280;45010;53.640;10.578;2023-04-22T12:02:24;100242.00;;;25.22;33.09
59240;BME280;45010;53.640;10.578;2023-04-22T12:05:34;100239.34;;;25.22;33.36
59240;BME280;45010;53.640;10.578;2023-04-22T12:08:36;100235.06;;;25.21;33.70
59240;BME280;45010;53.640;10.578;2023-04-22T12:11:40;100234.00;;;25.22;34.20
59240;BME280;45010;53.640;10.578;2023-04-22T12:14:44;100203.38;;;25.07;34.31
59240;BME280;45010;53.640;10.578;2023-04-22T12:17:45;100230.34;;;25.28;33.89
59240;BME280;45010;53.640;10.578;2023-04-22T12:20:45;100235.66;;;25.28;33.84
59240;BME280;45010;53.640;10.578;2023-04-22T12:26:47;100220.78;;;25.32;33.61
59240;BME280;45010;53.640;10.578;2023-04-22T12:29:55;100211.09;;;25.26;33.54
59240;BME280;45010;53.640;10.578;2023-04-22T12:32:55;100214.88;;;25.30;33.27
59240;BME280;45010;53.640;10.578;2023-04-22T12:35:56;100207.31;;;25.22;33.29
59240;BME280;45010;53.640;10.578;2023-04-22T12:38:56;100191.72;;;25.14;33.08
59240;BME280;45010;53.640;10.578;2023-04-22T12:41:56;100202.53;;;25.24;33.20
59240;BME280;45010;53.640;10.578;2023-04-22T12:44:57;100196.06;;;25.20;33.16
59240;BME280;45010;53.640;10.578;2023-04-22T12:47:58;100198.72;;;25.20;32.77
59240;BME280;45010;53.640;10.578;2023-04-22T12:50:58;100201.47;;;25.25;33.13
59240;BME280;45010;53.640;10.578;2023-04-22T12:53:59;100197.19;;;25.24;32.99
59240;BME280;45010;53.640;10.578;2023-04-22T12:56:59;100201.97;;;25.22;32.98
59240;BME280;45010;53.640;10.578;2023-04-22T13:00:01;100194.75;;;25.22;33.04
59240;BME280;45010;53.640;10.578;2023-04-22T13:03:03;100179.00;;;25.21;32.90
59240;BME280;45010;53.640;10.578;2023-04-22T13:06:03;100179.56;;;25.23;33.30
59240;BME280;45010;53.640;10.578;2023-04-22T13:09:03;100178.75;;;25.22;33.38
59240;BME280;45010;53.640;10.578;2023-04-22T13:12:05;100178.75;;;25.22;33.30
59240;BME280;45010;53.640;10.578;2023-04-22T13:15:06;100167.22;;;25.17;33.37
59240;BME280;45010;53.640;10.578;2023-04-22T13:18:06;100156.00;;;25.15;32.98
59240;BME280;45010;53.640;10.578;2023-04-22T13:21:07;100165.66;;;25.21;33.10
59240;BME280;45010;53.640;10.578;2023-04-22T13:24:07;100169.38;;;25.20;33.09
59240;BME280;45010;53.640;10.578;2023-04-22T13:27:08;100160.34;;;25.21;33.69
59240;BME280;45010;53.640;10.578;2023-04-22T13:30:08;100161.94;;;25.22;33.79
59240;BME280;45010;53.640;10.578;2023-04-22T13:33:09;100136.75;;;25.12;33.82
59240;BME280;45010;53.640;10.578;2023-04-22T13:36:09;100148.84;;;25.20;33.72
59240;BME280;45010;53.640;10.578;2023-04-22T13:39:11;100137.34;;;25.20;33.65
59240;BME280;45010;53.640;10.578;2023-04-22T13:42:12;100106.22;;;25.03;33.57
59240;BME280;45010;53.640;10.578;2023-04-22T13:45:12;100130.41;;;25.19;33.56
59240;BME280;45010;53.640;10.578;2023-04-22T13:48:13;100130.41;;;25.19;33.08
59240;BME280;45010;53.640;10.578;2023-04-22T13:51:15;100126.66;;;25.20;33.35
59240;BME280;45010;53.640;10.578;2023-04-22T13:54:15;100133.06;;;25.19;33.16
59240;BME280;45010;53.640;10.578;2023-04-22T13:57:15;100125.06;;;25.19;32.98
59240;BME280;45010;53.640;10.578;2023-04-22T14:00:16;100117.06;;;25.19;33.11
59240;BME280;45010;53.640;10.578;2023-04-22T14:03:16;100119.72;;;25.19;33.15
59240;BME280;45010;53.640;10.578;2023-04-22T14:06:17;100114.38;;;25.19;32.98
59240;BME280;45010;53.640;10.578;2023-04-22T14:09:17;100110.94;;;25.18;33.11
59240;BME280;45010;53.640;10.578;2023-04-22T14:12:18;100102.09;;;25.18;32.96
59240;BME280;45010;53.640;10.578;2023-04-22T14:15:18;100108.25;;;25.18;32.82
59240;BME280;45010;53.640;10.578;2023-04-22T14:18:18;100099.44;;;25.18;32.90
59240;BME280;45010;53.640;10.578;2023-04-22T14:21:19;100096.78;;;25.18;32.82
59240;BME280;45010;53.640;10.578;2023-04-22T14:24:19;100096.78;;;25.18;32.82
59240;BME280;45010;53.640;10.578;2023-04-22T14:27:20;100086.09;;;25.18;32.76
59240;BME280;45010;53.640;10.578;2023-04-22T14:30:20;100091.44;;;25.18;32.75
59240;BME280;45010;53.640;10.578;2023-04-22T14:33:21;100085.31;;;25.17;32.74
59240;BME280;45010;53.640;10.578;2023-04-22T14:36:23;100069.50;;;25.10;32.71
59240;BME280;45010;53.640;10.578;2023-04-22T14:39:24;100068.47;;;25.17;32.66
59240;BME280;45010;53.640;10.578;2023-04-22T14:42:24;100068.47;;;25.17;32.76
59240;BME280;45010;53.640;10.578;2023-04-22T14:45:27;100060.41;;;25.11;32.81
59240;BME280;45010;53.640;10.578;2023-04-22T14:48:28;100064.75;;;25.18;32.72
59240;BME280;45010;53.640;10.578;2023-04-22T14:51:30;100064.75;;;25.18;32.84
59240;BME280;45010;53.640;10.578;2023-04-22T14:54:31;100065.81;;;25.17;32.82
59240;BME280;45010;53.640;10.578;2023-04-22T14:57:31;100063.16;;;25.17;32.85
59240;BME280;45010;53.640;10.578;2023-04-22T15:00:32;100057.81;;;25.17;32.64
59240;BME280;45010;53.640;10.578;2023-04-22T15:03:32;100049.75;;;25.11;32.80
59240;BME280;45010;53.640;10.578;2023-04-22T15:06:34;100052.47;;;25.17;32.92
59240;BME280;45010;53.640;10.578;2023-04-22T15:09:34;100047.13;;;25.17;32.98
59240;BME280;45010;53.640;10.578;2023-04-22T15:12:35;100048.75;;;25.18;33.02
59240;BME280;45010;53.640;10.578;2023-04-22T15:15:35;100041.78;;;25.17;33.02
59240;BME280;45010;53.640;10.578;2023-04-22T15:18:35;100040.19;;;25.16;32.92
59240;BME280;45010;53.640;10.578;2023-04-22T15:21:36;100044.47;;;25.17;33.03
59240;BME280;45010;53.640;10.578;2023-04-22T15:24:36;100034.84;;;25.16;32.92
59240;BME280;45010;53.640;10.578;2023-04-22T15:27:37;100026.78;;;25.10;32.95
59240;BME280;45010;53.640;10.578;2023-04-22T15:30:38;100040.19;;;25.16;32.99
59240;BME280;45010;53.640;10.578;2023-04-22T15:33:39;100032.97;;;25.16;32.84
59240;BME280;45010;53.640;10.578;2023-04-22T15:36:40;100027.91;;;25.15;32.78
59240;BME280;45010;53.640;10.578;2023-04-22T15:39:41;100006.75;;;25.08;33.34
59240;BME280;45010;53.640;10.578;2023-04-22T15:42:42;100027.91;;;25.15;33.44
59240;BME280;45010;53.640;10.578;2023-04-22T15:45:42;100018.84;;;25.16;33.44
59240;BME280;45010;53.640;10.578;2023-04-22T15:48:42;100008.19;;;25.16;33.53
59240;BME280;45010;53.640;10.578;2023-04-22T15:51:46;99994.19;;;25.03;33.51